Terminal Aerodrome Forecast
Issued by NWS

Home | Current Version | Previous Version | Text Only | Print | Product List | Glossary On
Versions: 1 2 3 4 5 6 7 8 9 10 11 12 13 14 15 16 17 18 19 20 21 22 23 24 25 26 27 28
000
FTUS45 KPSR 180231 AAA
TAFPHX
TAF AMD
KPHX 180231Z 1803/1906 25005KT P6SM BKN250
     FM180700 11005KT P6SM SCT140 BKN250
     FM182100 29008KT P6SM FEW140 BKN250
     FM190400 12005KT P6SM FEW140 BKN250=

USA.gov is the U.S. government's official web portal to all federal, state and local government web resources and services.